createdAt,value
2018-12-16T02:50:27.783Z,100654.66
2018-12-16T02:55:38.759Z,100646.98
2018-12-16T03:01:12.445Z,100641.73
2018-12-16T03:06:23.888Z,100636.13
2018-12-16T03:11:34.928Z,100630.16
2018-12-16T03:16:45.662Z,100622.32
2018-12-16T03:21:57.361Z,100618.92
2018-12-16T03:27:08.590Z,100605.83
2018-12-16T03:32:19.875Z,100590.50
2018-12-16T03:37:30.990Z,100592.73
2018-12-16T03:46:26.771Z,100573.36
2018-12-16T03:51:38.319Z,100567.88
2018-12-16T03:56:49.041Z,100552.06
2018-12-16T04:02:01.693Z,100545.94
2018-12-16T04:07:12.608Z,100534.54
2018-12-16T04:12:23.492Z,100526.89
2018-12-16T04:17:34.906Z,100517.52
2018-12-16T04:22:46.460Z,100508.99
2018-12-16T04:27:57.817Z,100512.74
2018-12-16T04:37:59.284Z,100504.91
2018-12-16T04:43:09.907Z,100504.91
2018-12-16T04:48:21.675Z,100498.47
2018-12-16T04:53:36.863Z,100478.42
2018-12-16T04:58:45.897Z,100465.84
2018-12-16T05:03:56.782Z,100446.27
2018-12-16T05:09:09.883Z,100453.55
2018-12-16T05:14:20.918Z,100454.38
2018-12-16T05:19:33.219Z,100449.78
2018-12-16T05:24:44.524Z,100461.34
2018-12-16T05:29:57.278Z,100466.78
2018-12-16T05:35:08.341Z,100462.53
2018-12-16T05:40:19.885Z,100453.64
2018-12-16T05:45:30.538Z,100449.07
2018-12-16T05:50:41.786Z,100448.03
2018-12-16T05:55:52.737Z,100442.73
2018-12-16T06:01:03.634Z,100443.91
2018-12-16T06:06:14.586Z,100442.83
2018-12-16T06:11:27.481Z,100426.35
2018-12-16T06:16:38.516Z,100430.41
2018-12-16T06:21:49.845Z,100419.72
2018-12-16T06:27:00.846Z,100410.96
2018-12-16T06:32:12.565Z,100404.77
2018-12-16T06:37:23.508Z,100387.39
2018-12-16T06:42:34.712Z,100386.23
2018-12-16T06:47:46.560Z,100379.87
2018-12-16T06:52:57.605Z,100385.75
2018-12-16T06:55:28.468Z,100370.62
2018-12-16T07:00:39.983Z,100363.35
2018-12-16T07:05:50.909Z,100357.03
2018-12-16T07:11:01.632Z,100361.09
2018-12-16T07:16:12.977Z,100359.70
2018-12-16T07:21:23.835Z,100364.30
2018-12-16T07:26:34.887Z,100374.27
2018-12-16T07:31:45.996Z,100366.45
2018-12-16T07:36:56.686Z,100361.59
2018-12-16T07:42:07.597Z,100363.80
2018-12-16T07:47:18.639Z,100361.55
2018-12-16T07:52:29.608Z,100364.81
2018-12-16T07:57:40.807Z,100361.41
2018-12-16T08:02:53.481Z,100360.18
2018-12-16T08:08:05.569Z,100348.14
2018-12-16T08:13:16.803Z,100337.25
2018-12-16T08:18:27.644Z,100338.23
2018-12-16T08:23:39.906Z,100330.83
2018-12-16T08:28:51.452Z,100341.55
2018-12-16T08:34:01.588Z,100342.58
2018-12-16T08:39:14.655Z,100324.55
2018-12-16T08:44:25.620Z,100316.81
2018-12-16T08:49:36.897Z,100320.20
2018-12-16T08:54:48.590Z,100316.80
2018-12-16T09:00:00.896Z,100319.53
2018-12-16T09:05:12.199Z,100303.31
2018-12-16T09:10:23.408Z,100304.14
2018-12-16T09:15:33.757Z,100313.75
2018-12-16T09:20:45.055Z,100309.38
2018-12-16T09:25:55.896Z,100298.48
2018-12-16T09:31:08.620Z,100289.98
2018-12-16T09:36:19.689Z,100293.33
2018-12-16T09:41:34.730Z,100289.30
2018-12-16T09:46:45.624Z,100285.88
2018-12-16T09:52:05.226Z,100281.09
2018-12-16T09:57:16.227Z,100281.19
2018-12-16T10:02:27.374Z,100281.33
2018-12-16T10:07:40.616Z,100278.86
2018-12-16T10:12:53.301Z,100266.81
2018-12-16T10:18:06.992Z,100258.05
2018-12-16T10:23:46.320Z,100249.00
2018-12-16T10:28:57.917Z,100246.53
2018-12-16T10:35:39.655Z,100238.08
2018-12-16T10:40:50.814Z,100228.67
2018-12-16T10:46:02.095Z,100204.27
2018-12-16T10:57:06.643Z,100200.25
2018-12-16T11:02:19.887Z,100187.46
2018-12-16T11:07:32.654Z,100198.89
2018-12-16T11:12:46.736Z,100191.86
2018-12-16T11:17:57.896Z,100184.91
2018-12-16T11:23:10.602Z,100174.53
2018-12-16T11:28:29.668Z,100163.50
2018-12-16T11:33:41.701Z,100156.86
2018-12-16T11:38:52.811Z,100158.44
2018-12-16T11:44:07.645Z,100153.17
2018-12-16T11:49:18.923Z,100145.73
2018-12-16T11:54:47.316Z,100139.67
2018-12-16T12:00:00.324Z,100138.39
2018-12-16T12:05:13.014Z,100131.10
2018-12-16T12:10:27.772Z,100120.41
2018-12-16T12:15:40.530Z,100122.09
2018-12-16T12:20:54.609Z,100107.23
2018-12-16T12:26:05.732Z,100105.55
2018-12-16T12:37:09.670Z,100086.71
2018-12-16T12:42:21.227Z,100084.73
2018-12-16T12:47:32.640Z,100091.27
2018-12-16T12:52:47.813Z,100094.58
2018-12-16T12:57:59.630Z,100088.86
2018-12-16T13:03:11.464Z,100081.73
2018-12-16T13:08:22.839Z,100077.22
2018-12-16T13:13:33.561Z,100084.70
2018-12-16T13:18:44.568Z,100093.12
2018-12-16T13:23:55.844Z,100095.92
2018-12-16T13:29:06.592Z,100092.25
2018-12-16T13:34:16.909Z,100091.81
2018-12-16T13:39:27.487Z,100094.67
2018-12-16T13:44:42.597Z,100096.45
2018-12-16T13:49:56.793Z,100095.28
2018-12-16T13:55:08.640Z,100093.00
2018-12-16T14:00:25.745Z,100094.37
2018-12-16T14:05:36.678Z,100103.95
2018-12-16T14:11:34.115Z,100103.53
2018-12-16T14:16:45.638Z,100105.15
2018-12-16T14:22:29.875Z,100102.44
2018-12-16T14:27:39.784Z,100089.77
2018-12-16T14:32:55.061Z,100089.47
2018-12-16T14:38:17.201Z,100098.63
2018-12-16T14:43:42.503Z,100098.60
2018-12-16T14:48:54.223Z,100098.91
2018-12-16T14:54:12.641Z,100098.73
2018-12-16T14:59:24.222Z,100106.05
2018-12-16T15:04:36.056Z,100104.61
2018-12-16T15:09:46.978Z,100096.64
2018-12-16T15:14:57.764Z,100111.47
2018-12-16T15:20:21.652Z,100110.55
2018-12-16T15:25:34.357Z,100099.39
2018-12-16T15:30:50.594Z,100096.07
2018-12-16T15:36:02.856Z,100098.03
2018-12-16T15:41:13.784Z,100114.75
2018-12-16T15:47:48.592Z,100103.17
2018-12-16T15:52:59.735Z,100104.32
2018-12-16T15:58:11.305Z,100107.00
2018-12-16T16:03:24.263Z,100111.73
2018-12-16T16:08:36.679Z,100117.53
2018-12-16T16:13:48.717Z,100121.92
2018-12-16T16:18:59.835Z,100122.41
2018-12-16T16:24:14.994Z,100124.56
2018-12-16T16:29:25.619Z,100134.91
2018-12-16T16:34:36.994Z,100142.88
2018-12-16T16:39:47.802Z,100143.48
2018-12-16T16:44:58.732Z,100130.86
2018-12-16T16:50:09.622Z,100135.42
2018-12-16T16:55:20.793Z,100144.80
2018-12-16T17:00:31.683Z,100135.13
2018-12-16T17:05:43.037Z,100144.72
2018-12-16T17:10:54.634Z,100147.01
2018-12-16T17:16:09.302Z,100147.47
2018-12-16T17:21:39.672Z,100149.36
2018-12-16T17:26:50.773Z,100146.64
2018-12-16T17:31:30.786Z,100147.52
2018-12-16T17:36:41.662Z,100156.70
2018-12-16T17:41:52.998Z,100162.29
2018-12-16T17:47:03.703Z,100164.73
2018-12-16T17:58:16.865Z,100185.84
2018-12-16T18:03:34.699Z,100180.86
2018-12-16T18:08:46.809Z,100189.66
2018-12-16T18:14:00.222Z,100193.03
2018-12-16T18:19:10.649Z,100177.88
2018-12-16T18:24:22.245Z,100180.98
2018-12-16T18:29:33.652Z,100192.47
2018-12-16T18:34:44.893Z,100190.81
2018-12-16T18:39:57.367Z,100187.93
2018-12-16T18:45:09.834Z,100182.52
2018-12-16T18:50:28.482Z,100187.81
2018-12-16T18:55:40.606Z,100185.41
2018-12-16T19:00:58.312Z,100196.27
2018-12-16T19:06:09.850Z,100193.13
2018-12-16T19:11:21.645Z,100189.95
2018-12-16T19:16:32.696Z,100184.17
2018-12-16T19:27:37.949Z,100184.41
2018-12-16T19:32:56.617Z,100203.78
2018-12-16T19:38:07.891Z,100194.55
2018-12-16T19:43:24.639Z,100188.41
2018-12-16T19:48:36.316Z,100191.88
2018-12-16T19:53:46.816Z,100195.48
2018-12-16T19:58:58.243Z,100207.13
2018-12-16T20:04:49.284Z,100214.06
2018-12-16T20:10:00.785Z,100212.59
2018-12-16T20:15:11.794Z,100215.93
2018-12-16T20:20:26.871Z,100221.44
2018-12-16T20:25:37.734Z,100226.61
2018-12-16T20:30:53.332Z,100227.08
2018-12-16T20:36:04.796Z,100233.56
2018-12-16T20:41:15.615Z,100239.12
2018-12-16T20:46:27.690Z,100244.01
2018-12-16T20:51:39.698Z,100242.42
2018-12-16T20:56:50.708Z,100244.00
2018-12-16T21:02:05.759Z,100242.62
2018-12-16T21:07:17.234Z,100243.24
2018-12-16T21:12:33.565Z,100239.28
2018-12-16T21:18:03.370Z,100244.20
2018-12-16T21:23:37.642Z,100239.41
2018-12-16T21:28:48.815Z,100247.83
2018-12-16T21:34:12.712Z,100259.23
2018-12-16T21:39:24.374Z,100257.45
2018-12-16T21:44:36.975Z,100256.42
2018-12-16T21:49:47.701Z,100257.66
2018-12-16T21:54:58.647Z,100268.95
2018-12-16T22:00:17.177Z,100264.07
2018-12-16T22:05:32.939Z,100264.51
2018-12-16T22:11:02.754Z,100255.40
2018-12-16T22:16:14.410Z,100266.55
2018-12-16T22:21:47.237Z,100263.03
2018-12-16T22:26:58.828Z,100264.86
2018-12-16T22:32:33.794Z,100270.87
2018-12-16T22:37:44.971Z,100272.66
2018-12-16T22:42:55.943Z,100273.88
2018-12-16T22:48:06.847Z,100286.91
2018-12-16T22:53:43.914Z,100291.06
2018-12-16T22:58:55.860Z,100294.14
2018-12-16T23:04:30.703Z,100296.92
2018-12-16T23:09:42.252Z,100309.18
2018-12-16T23:14:53.597Z,100311.06
2018-12-16T23:20:10.199Z,100311.94
2018-12-16T23:25:21.214Z,100314.03
2018-12-16T23:30:34.566Z,100310.64
2018-12-16T23:35:45.591Z,100325.99
2018-12-16T23:41:06.287Z,100327.53
2018-12-16T23:46:17.606Z,100333.00
2018-12-16T23:57:22.648Z,100343.14
